Time;durP1;ratioP1;P1;durP2;ratioP2;P2;SDS_P1;SDS_P2;PMS_P1;PMS_P2;Temp;Humidity;BMP_temperature;BMP_pressure;BME280_temperature;BME280_humidity;BME280_pressure;Samples;Min_cycle;Max_cycle;Signal;HPM_P1;HPM_P2
2021/05/17 00:01:26;;;;;;;;;;;;;;;16.94;50.51;99765.06;5030831;27;99099;-77
2021/05/17 00:03:52;;;;;;;;;;;;;;;16.92;50.55;99765.19;5030502;27;99143;-75
2021/05/17 00:06:18;;;;;;;;;;;;;;;16.72;51.21;99760.53;5033594;27;96906;-76
2021/05/17 00:08:46;;;;;;;;;;;;;;;16.57;51.60;99756.31;5031106;27;97055;-78
2021/05/17 00:11:12;;;;;;;;;;;;;;;16.79;51.10;99764.44;5030690;27;99593;-77
2021/05/17 00:13:38;;;;;;;;;;;;;;;16.89;50.91;99753.88;5032974;27;98819;-78
2021/05/17 00:16:04;;;;;;;;;;;;;;;16.85;50.93;99771.13;5034662;27;96843;-78
2021/05/17 00:18:31;;;;;;;;;;;;;;;17.05;50.33;99759.75;5036038;27;97203;-77
2021/05/17 00:20:57;;;;;;;;;;;;;;;16.83;50.78;99757.88;5036138;27;98514;-77
2021/05/17 00:23:23;;;;;;;;;;;;;;;16.81;51.04;99759.81;5027801;27;98873;-77
2021/05/17 00:25:49;;;;;;;;;;;;;;;16.55;51.76;99755.56;5034866;27;96845;-76
2021/05/17 00:28:15;;;;;;;;;;;;;;;17.02;50.71;99755.50;5035423;27;96846;-77
2021/05/17 00:30:41;;;;;;;;;;;;;;;16.83;51.06;99757.88;5029027;27;99252;-77
2021/05/17 00:33:07;;;;;;;;;;;;;;;16.83;50.79;99755.22;5026064;28;100207;-77
2021/05/17 00:35:34;;;;;;;;;;;;;;;16.85;50.85;99755.97;5036527;28;98207;-77
2021/05/17 00:38:00;;;;;;;;;;;;;;;16.64;51.20;99754.94;5034419;27;97571;-78
2021/05/17 00:40:26;;;;;;;;;;;;;;;16.50;51.60;99757.75;5034387;27;101696;-78
2021/05/17 00:42:52;;;;;;;;;;;;;;;16.55;51.39;99758.25;5034839;27;97807;-77
2021/05/17 00:45:19;;;;;;;;;;;;;;;16.52;51.98;99758.50;5036027;27;97615;-77
2021/05/17 00:47:47;;;;;;;;;;;;;;;16.35;52.26;99757.06;5030454;27;97686;-77
2021/05/17 00:50:15;;;;;;;;;;;;;;;16.50;52.14;99755.09;5034461;27;98802;-77
2021/05/17 00:52:42;;;;;;;;;;;;;;;16.38;52.31;99756.84;5038850;27;99009;-77
2021/05/17 00:55:08;;;;;;;;;;;;;;;16.22;52.90;99754.47;5036243;27;96739;-77
2021/05/17 00:57:34;;;;;;;;;;;;;;;16.57;51.85;99751.84;5040058;27;96891;-76
2021/05/17 01:00:01;;;;;;;;;;;;;;;16.62;51.69;99754.19;5041309;27;97730;-76
2021/05/17 01:02:27;;;;;;;;;;;;;;;16.55;52.06;99752.91;5044041;27;98755;-76
2021/05/17 01:04:53;;;;;;;;;;;;;;;16.64;51.62;99757.59;5050279;27;97101;-76
2021/05/17 01:07:20;;;;;;;;;;;;;;;16.23;52.59;99750.84;5051791;27;96597;-76
2021/05/17 01:09:47;;;;;;;;;;;;;;;16.33;52.40;99757.22;5050592;27;97572;-75
2021/05/17 01:12:15;;;;;;;;;;;;;;;16.49;52.06;99748.03;5047708;27;98815;-77
2021/05/17 01:14:41;;;;;;;;;;;;;;;16.42;51.95;99741.47;5035009;28;97742;-77
2021/05/17 01:17:08;;;;;;;;;;;;;;;16.20;52.49;99743.09;5035719;27;96791;-76
2021/05/17 01:19:37;;;;;;;;;;;;;;;16.29;52.22;99736.22;5035023;27;97775;-77
2021/05/17 01:22:09;;;;;;;;;;;;;;;16.27;52.22;99746.16;5032462;27;99057;-77
2021/05/17 01:24:37;;;;;;;;;;;;;;;16.18;52.96;99745.03;5034727;28;98126;-77
2021/05/17 01:27:03;;;;;;;;;;;;;;;15.98;54.14;99742.13;5033140;27;96936;-77
2021/05/17 01:29:30;;;;;;;;;;;;;;;15.83;54.82;99744.09;5044940;27;99333;-77
2021/05/17 01:31:56;;;;;;;;;;;;;;;15.88;54.82;99741.97;5035432;28;99370;-77
2021/05/17 01:34:22;;;;;;;;;;;;;;;16.05;54.40;99743.38;5036220;27;96947;-77
2021/05/17 01:36:49;;;;;;;;;;;;;;;16.04;54.15;99747.00;5034149;27;96842;-76
2021/05/17 01:39:15;;;;;;;;;;;;;;;16.09;53.89;99745.69;5032677;27;98245;-77
2021/05/17 01:41:42;;;;;;;;;;;;;;;16.24;53.36;99746.38;5033338;27;99078;-77
2021/05/17 01:44:10;;;;;;;;;;;;;;;16.15;53.25;99758.56;5034729;28;96730;-79
2021/05/17 01:46:37;;;;;;;;;;;;;;;16.08;53.08;99757.31;5034609;27;97115;-77
2021/05/17 01:49:03;;;;;;;;;;;;;;;16.00;53.45;99751.72;5033914;27;98711;-79
2021/05/17 01:51:28;;;;;;;;;;;;;;;15.94;53.68;99765.50;5032211;27;99251;-77
2021/05/17 01:53:54;;;;;;;;;;;;;;;15.78;54.57;99763.06;5035102;27;96931;-78
2021/05/17 01:56:20;;;;;;;;;;;;;;;15.89;54.63;99764.94;5035853;27;96946;-78
2021/05/17 01:58:47;;;;;;;;;;;;;;;15.63;55.39;99765.97;5032509;28;98847;-78
2021/05/17 02:01:14;;;;;;;;;;;;;;;15.94;54.61;99765.50;5032872;27;99262;-77
2021/05/17 02:03:41;;;;;;;;;;;;;;;15.82;54.59;99769.00;5034731;27;96747;-78
2021/05/17 02:06:08;;;;;;;;;;;;;;;15.91;54.43;99765.69;5035632;27;96813;-77
2021/05/17 02:08:34;;;;;;;;;;;;;;;15.93;54.04;99761.13;5034055;27;97734;-78
2021/05/17 02:11:00;;;;;;;;;;;;;;;16.14;53.09;99772.03;5034051;27;97435;-78
2021/05/17 02:13:27;;;;;;;;;;;;;;;16.03;53.24;99767.47;5035035;27;96847;-76
2021/05/17 02:15:54;;;;;;;;;;;;;;;15.95;53.44;99767.16;5033647;27;97219;-77
2021/05/17 02:18:20;;;;;;;;;;;;;;;16.28;52.76;99767.34;5033958;28;98816;-77
2021/05/17 02:20:46;;;;;;;;;;;;;;;16.10;53.12;99776.72;5027897;28;97865;-77
2021/05/17 02:23:13;;;;;;;;;;;;;;;16.02;53.24;99770.22;5034442;27;96854;-78
2021/05/17 02:25:41;;;;;;;;;;;;;;;15.91;53.33;99769.22;5032099;27;97093;-77
2021/05/17 02:28:07;;;;;;;;;;;;;;;15.95;53.14;99772.50;5035593;28;98843;-77
2021/05/17 02:30:33;;;;;;;;;;;;;;;15.98;53.25;99769.63;5040365;27;98813;-77
2021/05/17 02:33:00;;;;;;;;;;;;;;;15.91;53.54;99773.69;5034335;27;97017;-77
2021/05/17 02:35:26;;;;;;;;;;;;;;;16.04;53.39;99771.81;5035878;27;97189;-78
2021/05/17 02:37:52;;;;;;;;;;;;;;;16.22;52.85;99783.78;5032497;28;98983;-78
2021/05/17 02:40:19;;;;;;;;;;;;;;;16.10;53.13;99776.72;5034134;27;99315;-77
2021/05/17 02:42:46;;;;;;;;;;;;;;;16.08;53.09;99781.28;5025474;27;97032;-78
2021/05/17 02:45:12;;;;;;;;;;;;;;;16.23;52.71;99782.84;5033880;27;96758;-78
2021/05/17 02:47:39;;;;;;;;;;;;;;;16.20;52.29;99779.56;5034244;28;97765;-78
2021/05/17 02:50:07;;;;;;;;;;;;;;;16.44;51.85;99799.06;5032753;27;97891;-76
2021/05/17 02:52:33;;;;;;;;;;;;;;;16.28;52.46;99798.47;5032459;27;97126;-77
2021/05/17 02:55:01;;;;;;;;;;;;;;;16.20;53.12;99793.75;5037896;27;96887;-76
2021/05/17 02:57:36;;;;;;;;;;;;;;;16.54;53.04;99793.91;5051602;27;97849;-77
2021/05/17 03:00:13;;;;;;;;;;;;;;;16.47;53.36;99790.00;5034686;27;99339;-77
2021/05/17 03:02:58;;;;;;;;;;;;;;;16.48;53.30;99789.00;5031554;27;98043;-77
2021/05/17 03:05:26;;;;;;;;;;;;;;;16.22;54.98;99791.78;5035400;27;97021;-78
2021/05/17 03:07:59;;;;;;;;;;;;;;;16.06;56.34;99809.03;5034035;27;98171;-78
2021/05/17 03:10:26;;;;;;;;;;;;;;;16.51;55.83;99802.97;5031408;28;98927;-77
2021/05/17 03:12:53;;;;;;;;;;;;;;;16.70;54.65;99799.81;5030225;27;97030;-77
2021/05/17 03:15:19;;;;;;;;;;;;;;;16.45;55.64;99805.25;5032520;27;96833;-78
2021/05/17 03:17:46;;;;;;;;;;;;;;;16.55;55.80;99806.25;5032325;27;98870;-77
2021/05/17 03:20:12;;;;;;;;;;;;;;;16.64;55.93;99811.78;5031794;27;98799;-77
2021/05/17 03:22:39;;;;;;;;;;;;;;;16.54;55.67;99812.56;5033506;27;97209;-77
2021/05/17 03:25:07;;;;;;;;;;;;;;;16.47;55.62;99814.00;5032743;27;96849;-77
2021/05/17 03:27:33;;;;;;;;;;;;;;;16.45;56.16;99813.25;5032226;27;98852;-77
2021/05/17 03:29:59;;;;;;;;;;;;;;;16.58;55.99;99808.69;5031771;27;101476;-76
2021/05/17 03:32:25;;;;;;;;;;;;;;;16.64;56.01;99800.25;5032623;27;96914;-77
2021/05/17 03:34:51;;;;;;;;;;;;;;;16.47;56.95;99800.66;5033783;28;97012;-77
2021/05/17 03:37:17;;;;;;;;;;;;;;;16.39;57.55;99809.22;5032296;27;98830;-79
2021/05/17 03:39:44;;;;;;;;;;;;;;;16.50;57.58;99795.94;5028062;28;99052;-77
2021/05/17 03:42:10;;;;;;;;;;;;;;;16.27;58.97;99804.81;5030276;27;97543;-77
2021/05/17 03:44:36;;;;;;;;;;;;;;;16.46;58.28;99813.13;5028647;27;97663;-78
2021/05/17 03:47:01;;;;;;;;;;;;;;;16.18;59.09;99814.31;5031320;28;99148;-78
2021/05/17 03:49:39;;;;;;;;;;;;;;;16.38;58.92;99814.66;5031149;27;98692;-78
2021/05/17 03:52:05;;;;;;;;;;;;;;;16.04;60.09;99826.94;5035343;28;96794;-76
2021/05/17 03:54:31;;;;;;;;;;;;;;;16.13;59.62;99821.81;5039149;27;97383;-77
2021/05/17 03:56:58;;;;;;;;;;;;;;;16.46;58.23;99825.63;5037707;27;98820;-77
2021/05/17 03:59:24;;;;;;;;;;;;;;;16.59;57.60;99831.75;5035988;28;97908;-77
2021/05/17 04:01:50;;;;;;;;;;;;;;;16.49;57.73;99833.38;5035723;27;96837;-77
2021/05/17 04:04:18;;;;;;;;;;;;;;;16.51;57.90;99831.44;5037182;28;96998;-77
2021/05/17 04:06:48;;;;;;;;;;;;;;;16.47;58.38;99830.84;5036309;27;99158;-78
2021/05/17 04:15:13;;;;;;;;;;;;;;;16.34;58.68;99841.53;5036253;27;96827;-78
2021/05/17 04:17:39;;;;;;;;;;;;;;;16.53;58.00;99837.53;5034074;27;98883;-77
2021/05/17 04:20:05;;;;;;;;;;;;;;;16.70;56.78;99840.66;5033137;27;98904;-78
2021/05/17 04:22:31;;;;;;;;;;;;;;;16.46;57.21;99849.63;5034419;27;97170;-78
2021/05/17 04:24:56;;;;;;;;;;;;;;;16.55;57.01;99848.91;5037584;27;96861;-78
2021/05/17 04:27:23;;;;;;;;;;;;;;;16.67;56.56;99842.72;5041797;27;100811;-78
2021/05/17 04:29:49;;;;;;;;;;;;;;;16.86;55.64;99845.72;5037807;28;97862;-78
2021/05/17 04:32:14;;;;;;;;;;;;;;;16.56;57.33;99848.81;5041405;27;97786;-78
2021/05/17 04:34:40;;;;;;;;;;;;;;;16.94;56.10;99853.97;5039197;27;97129;-78
2021/05/17 04:37:06;;;;;;;;;;;;;;;16.94;55.76;99853.97;5036186;27;97773;-76
2021/05/17 04:39:32;;;;;;;;;;;;;;;16.73;56.54;99860.94;5037537;27;99219;-77
2021/05/17 04:41:58;;;;;;;;;;;;;;;16.91;55.71;99856.03;5035100;27;96895;-78
2021/05/17 04:44:26;;;;;;;;;;;;;;;16.97;55.51;99859.09;5037610;27;98235;-78
2021/05/17 04:46:52;;;;;;;;;;;;;;;17.00;55.86;99866.84;5041704;27;101028;-77
2021/05/17 04:49:18;;;;;;;;;;;;;;;17.16;54.70;99865.69;5040341;27;98161;-79
2021/05/17 04:51:44;;;;;;;;;;;;;;;17.54;53.81;99867.09;5036306;27;98535;-78
2021/05/17 04:54:10;;;;;;;;;;;;;;;17.38;53.72;99873.75;5040543;27;96834;-78
2021/05/17 04:56:36;;;;;;;;;;;;;;;17.35;52.82;99871.31;5038270;27;99029;-78
2021/05/17 04:59:01;;;;;;;;;;;;;;;18.03;52.16;99878.44;5036579;27;98615;-77
2021/05/17 05:01:28;;;;;;;;;;;;;;;17.77;52.46;99872.50;5038595;27;96947;-78
2021/05/17 05:03:54;;;;;;;;;;;;;;;17.83;51.60;99872.88;5041680;28;96798;-77
2021/05/17 05:06:20;;;;;;;;;;;;;;;18.00;51.17;99873.31;5038219;27;97733;-77
2021/05/17 05:08:45;;;;;;;;;;;;;;;18.58;50.38;99875.69;5034095;27;99125;-78
2021/05/17 05:11:11;;;;;;;;;;;;;;;19.88;46.33;99874.41;5034810;27;96847;-78
2021/05/17 05:13:37;;;;;;;;;;;;;;;19.96;44.84;99873.72;5035935;27;96875;-77
2021/05/17 05:16:03;;;;;;;;;;;;;;;19.59;46.50;99877.91;5037337;27;99237;-77
2021/05/17 05:18:30;;;;;;;;;;;;;;;19.69;46.30;99876.16;5039682;27;98846;-77
2021/05/17 05:20:55;;;;;;;;;;;;;;;19.49;46.90;99881.38;5038473;27;97084;-78
2021/05/17 05:23:21;;;;;;;;;;;;;;;19.21;46.78;99875.81;5039175;27;96829;-77
2021/05/17 05:26:16;;;;;;;;;;;;;;;19.66;46.17;99884.44;5035635;27;99549;-76
2021/05/17 05:28:53;;;;;;;;;;;;;;;19.72;46.33;99883.91;5037465;27;99774;-78
2021/05/17 05:31:23;;;;;;;;;;;;;;;19.68;45.42;99885.16;5039026;27;96737;-78
2021/05/17 05:33:49;;;;;;;;;;;;;;;19.60;45.37;99882.28;5035865;28;97465;-78
2021/05/17 05:36:15;;;;;;;;;;;;;;;19.77;44.85;99879.84;5043347;27;98764;-78
2021/05/17 05:38:41;;;;;;;;;;;;;;;19.07;45.74;99871.63;5032104;27;99520;-78
2021/05/17 05:41:07;;;;;;;;;;;;;;;18.24;47.99;99877.59;5034418;28;97057;-77
2021/05/17 05:43:33;;;;;;;;;;;;;;;18.57;47.45;99882.03;5037018;27;97149;-76
2021/05/17 05:45:58;;;;;;;;;;;;;;;18.16;48.56;99880.00;5040491;27;99123;-78
2021/05/17 05:48:24;;;;;;;;;;;;;;;18.21;48.35;99882.31;5039325;27;99219;-78
2021/05/17 05:50:52;;;;;;;;;;;;;;;18.51;48.39;99885.16;5040635;27;98878;-78
2021/05/17 05:53:18;;;;;;;;;;;;;;;18.59;47.19;99885.41;5040566;28;96830;-79
2021/05/17 05:55:44;;;;;;;;;;;;;;;18.73;47.38;99889.63;5037940;27;96790;-78
2021/05/17 05:58:10;;;;;;;;;;;;;;;18.82;46.84;99888.03;5039677;27;98940;-77
2021/05/17 06:00:36;;;;;;;;;;;;;;;18.98;46.48;99891.97;5036130;27;97054;-77
2021/05/17 06:03:03;;;;;;;;;;;;;;;18.96;46.28;99898.44;5038184;27;96874;-78
2021/05/17 06:05:29;;;;;;;;;;;;;;;19.06;44.98;99896.69;5031588;28;99228;-78
2021/05/17 06:08:00;;;;;;;;;;;;;;;19.40;44.23;99895.53;5034720;27;102090;-79
2021/05/17 06:10:26;;;;;;;;;;;;;;;21.11;41.66;99896.44;5033826;27;96716;-77
2021/05/17 06:12:52;;;;;;;;;;;;;;;22.42;38.43;99892.84;5035418;27;97426;-78
2021/05/17 06:15:19;;;;;;;;;;;;;;;23.29;36.55;99893.94;5031872;27;98868;-78
2021/05/17 06:17:46;;;;;;;;;;;;;;;23.59;36.61;99889.97;5033495;27;98790;-77
2021/05/17 06:20:13;;;;;;;;;;;;;;;23.01;36.19;99898.56;5032145;27;98893;-77
2021/05/17 06:22:38;;;;;;;;;;;;;;;22.52;37.10;99897.16;5037574;27;96917;-78
2021/05/17 06:25:07;;;;;;;;;;;;;;;21.65;39.37;99901.22;5031374;27;97635;-78
2021/05/17 06:27:33;;;;;;;;;;;;;;;21.56;39.69;99902.06;5033745;27;98799;-77
2021/05/17 06:29:59;;;;;;;;;;;;;;;21.02;40.05;99904.34;5032591;27;96887;-77
2021/05/17 06:32:26;;;;;;;;;;;;;;;20.72;41.42;99907.16;5035189;27;96980;-78
2021/05/17 06:34:52;;;;;;;;;;;;;;;20.55;41.48;99907.81;5033813;27;97808;-79
2021/05/17 06:37:17;;;;;;;;;;;;;;;20.79;41.20;99905.59;5032027;28;98770;-78
2021/05/17 06:39:43;;;;;;;;;;;;;;;20.64;41.15;99904.31;5032967;27;97520;-78
2021/05/17 06:42:11;;;;;;;;;;;;;;;20.83;41.28;99911.53;5027877;27;96975;-77
2021/05/17 06:44:37;;;;;;;;;;;;;;;20.39;41.35;99910.19;5023500;27;98953;-78
2021/05/17 06:47:04;;;;;;;;;;;;;;;20.32;41.21;99917.03;5036255;27;98820;-77
2021/05/17 06:49:31;;;;;;;;;;;;;;;20.28;40.41;99913.81;5033511;27;96943;-77
2021/05/17 06:51:57;;;;;;;;;;;;;;;20.42;40.61;99907.22;5029547;27;98221;-78
2021/05/17 06:54:26;;;;;;;;;;;;;;;20.11;41.20;99909.91;5031427;27;99159;-75
2021/05/17 06:56:55;;;;;;;;;;;;;;;20.23;41.52;99911.50;5030924;28;99085;-77
2021/05/17 06:59:23;;;;;;;;;;;;;;;19.73;42.38;99912.41;5020540;28;97379;-78
2021/05/17 07:01:49;;;;;;;;;;;;;;;19.86;42.22;99911.22;5027485;28;97598;-77
2021/05/17 07:04:16;;;;;;;;;;;;;;;19.68;42.59;99915.50;5027256;27;98784;-76
2021/05/17 07:06:47;;;;;;;;;;;;;;;19.83;41.96;99915.97;5024657;28;98633;-77
2021/05/17 07:12:01;;;;;;;;;;;;;;;20.97;40.23;99906.59;5029507;27;96720;-77
2021/05/17 07:14:28;;;;;;;;;;;;;;;21.28;38.85;99909.16;5023636;28;98926;-76
2021/05/17 07:16:53;;;;;;;;;;;;;;;21.80;37.98;99897.03;5028730;27;98823;-75
2021/05/17 07:19:19;;;;;;;;;;;;;;;21.55;38.08;99898.53;5018981;27;98492;-78
2021/05/17 07:24:37;;;;;;;;;;;;;;;21.90;36.97;99905.09;4989290;27;98249;-77
2021/05/17 07:27:03;;;;;;;;;;;;;;;22.07;36.24;99904.34;5027415;27;97776;-75
2021/05/17 07:29:32;;;;;;;;;;;;;;;21.63;36.82;99900.50;5021266;27;97471;-76
2021/05/17 07:31:58;;;;;;;;;;;;;;;22.01;35.87;99892.31;5031349;27;97006;-76
2021/05/17 07:34:24;;;;;;;;;;;;;;;21.99;36.16;99906.94;5030220;27;98100;-78
2021/05/17 07:36:50;;;;;;;;;;;;;;;21.91;36.42;99907.63;5029374;28;99110;-78
2021/05/17 07:39:16;;;;;;;;;;;;;;;22.02;36.95;99907.47;5030123;27;97068;-77
2021/05/17 07:41:44;;;;;;;;;;;;;;;21.75;36.95;99915.47;5027389;27;96829;-79
2021/05/17 07:44:10;;;;;;;;;;;;;;;21.74;36.95;99922.69;5030454;28;100418;-78
2021/05/17 07:46:37;;;;;;;;;;;;;;;21.87;36.54;99906.22;5032255;27;99275;-77
2021/05/17 07:49:08;;;;;;;;;;;;;;;22.03;36.51;99902.94;5027703;27;98256;-76
2021/05/17 07:51:35;;;;;;;;;;;;;;;22.42;36.16;99903.63;5030649;27;97121;-76
2021/05/17 07:54:02;;;;;;;;;;;;;;;22.03;35.71;99905.63;5032689;27;98920;-76
2021/05/17 07:56:28;;;;;;;;;;;;;;;21.84;36.41;99907.38;5033342;27;100312;-77
2021/05/17 07:58:54;;;;;;;;;;;;;;;22.47;35.43;99915.63;5039946;27;97187;-77
2021/05/17 08:01:21;;;;;;;;;;;;;;;22.68;35.29;99920.75;5039114;27;96743;-78
2021/05/17 08:03:48;;;;;;;;;;;;;;;22.62;34.41;99919.50;5019072;27;97767;-77
2021/05/17 08:06:15;;;;;;;;;;;;;;;22.24;35.38;99917.03;5027575;27;98922;-76
2021/05/17 08:08:41;;;;;;;;;;;;;;;22.46;35.23;99922.00;5039951;27;96826;-78
2021/05/17 08:11:07;;;;;;;;;;;;;;;22.79;34.60;99919.69;5040571;27;96958;-78
2021/05/17 08:13:33;;;;;;;;;;;;;;;22.34;35.37;99916.97;5039116;27;98321;-78
2021/05/17 08:15:59;;;;;;;;;;;;;;;22.34;34.88;99920.50;5037997;27;98898;-78
2021/05/17 08:18:25;;;;;;;;;;;;;;;22.33;35.14;99918.81;5041395;27;97119;-76
2021/05/17 08:20:53;;;;;;;;;;;;;;;22.53;34.97;99917.72;5031718;27;97389;-75
2021/05/17 08:23:20;;;;;;;;;;;;;;;22.21;35.81;99928.91;5038579;27;97413;-74
2021/05/17 08:25:46;;;;;;;;;;;;;;;21.69;36.84;99926.78;5041078;27;97816;-75
2021/05/17 08:28:13;;;;;;;;;;;;;;;21.64;36.72;99932.63;5031760;28;96803;-79
2021/05/17 08:30:42;;;;;;;;;;;;;;;21.73;35.96;99933.56;5031174;28;97160;-79
2021/05/17 08:33:08;;;;;;;;;;;;;;;21.39;36.78;99934.06;5036564;27;101165;-78
2021/05/17 08:35:37;;;;;;;;;;;;;;;21.61;36.39;99940.09;5030874;27;99677;-78
2021/05/17 08:38:04;;;;;;;;;;;;;;;21.57;35.91;99949.47;5034413;27;97211;-78
2021/05/17 08:40:33;;;;;;;;;;;;;;;21.62;36.02;99950.72;5035378;28;97223;-78
2021/05/17 08:43:00;;;;;;;;;;;;;;;22.12;34.64;99943.25;5026505;28;99213;-77
2021/05/17 08:45:26;;;;;;;;;;;;;;;22.60;34.22;99945.72;5030852;28;98930;-78
2021/05/17 08:47:52;;;;;;;;;;;;;;;22.62;33.87;99941.03;5033967;27;96887;-76
2021/05/17 08:50:23;;;;;;;;;;;;;;;22.30;34.42;99940.66;5035950;27;96913;-76
2021/05/17 08:52:56;;;;;;;;;;;;;;;21.79;35.28;99939.22;5033938;27;98140;-77
2021/05/17 08:55:23;;;;;;;;;;;;;;;21.85;34.99;99944.03;5032321;28;98846;-78
2021/05/17 08:57:49;;;;;;;;;;;;;;;21.20;36.43;99942.09;5032083;27;97056;-76
2021/05/17 09:00:17;;;;;;;;;;;;;;;22.34;34.32;99941.19;5032197;27;96924;-77
2021/05/17 09:02:45;;;;;;;;;;;;;;;22.97;33.07;99939.44;5031636;27;99030;-79
2021/05/17 09:05:15;;;;;;;;;;;;;;;22.04;34.55;99936.94;5032510;28;98150;-77
2021/05/17 09:07:42;;;;;;;;;;;;;;;22.31;34.04;99939.66;5029656;27;96759;-76
2021/05/17 09:10:15;;;;;;;;;;;;;;;22.04;34.64;99939.63;5029892;27;98535;-78
2021/05/17 09:12:55;;;;;;;;;;;;;;;22.10;34.78;99944.41;5035408;27;98868;-76
2021/05/17 09:15:26;;;;;;;;;;;;;;;21.81;34.27;99949.84;5032983;28;98940;-76
2021/05/17 09:17:55;;;;;;;;;;;;;;;21.59;34.07;99945.66;5029098;27;97764;-78
2021/05/17 09:20:22;;;;;;;;;;;;;;;21.96;33.92;99959.19;5031836;28;100492;-76
2021/05/17 09:22:50;;;;;;;;;;;;;;;22.23;33.92;99955.69;5033399;28;98971;-78
2021/05/17 09:25:16;;;;;;;;;;;;;;;22.20;33.72;99948.75;5034716;27;97212;-77
2021/05/17 09:27:42;;;;;;;;;;;;;;;22.49;33.22;99935.16;5031585;28;96901;-77
2021/05/17 09:30:09;;;;;;;;;;;;;;;23.08;32.38;99939.22;5034114;27;97345;-77
2021/05/17 09:32:42;;;;;;;;;;;;;;;22.88;32.50;99940.34;5033238;27;98960;-77
2021/05/17 09:35:10;;;;;;;;;;;;;;;22.17;33.12;99945.53;5029780;28;97997;-76
2021/05/17 09:37:44;;;;;;;;;;;;;;;21.90;33.73;99945.44;5033124;28;97219;-78
2021/05/17 09:40:17;;;;;;;;;;;;;;;21.60;34.86;99936.56;5031567;27;96948;-79
2021/05/17 09:42:43;;;;;;;;;;;;;;;21.12;35.88;99947.34;5030947;27;98890;-77
2021/05/17 09:45:30;;;;;;;;;;;;;;;21.19;36.26;99948.50;5027806;28;98747;-80
2021/05/17 09:47:57;;;;;;;;;;;;;;;21.20;35.94;99952.03;5031552;27;97915;-78
2021/05/17 09:50:23;;;;;;;;;;;;;;;21.28;35.82;99952.16;5032090;28;97209;-78
2021/05/17 09:52:48;;;;;;;;;;;;;;;21.79;35.15;99957.22;5026235;27;98808;-78
2021/05/17 09:55:14;;;;;;;;;;;;;;;21.82;34.65;99957.75;5027162;27;98807;-78
2021/05/17 09:57:41;;;;;;;;;;;;;;;22.25;34.39;99961.78;5021234;27;98401;-78
2021/05/17 10:00:13;;;;;;;;;;;;;;;22.67;33.35;99959.44;5025358;27;97972;-78
2021/05/17 10:02:41;;;;;;;;;;;;;;;22.50;32.99;99963.78;5030742;27;97867;-76
2021/05/17 10:05:14;;;;;;;;;;;;;;;22.54;33.40;99964.31;5025089;27;98785;-77
2021/05/17 10:07:40;;;;;;;;;;;;;;;22.47;33.69;99957.84;5031434;27;97067;-78
2021/05/17 10:10:06;;;;;;;;;;;;;;;22.46;32.87;99961.53;5030580;28;97323;-78
2021/05/17 10:12:32;;;;;;;;;;;;;;;22.36;32.89;99966.97;5029320;27;98813;-77
2021/05/17 10:14:58;;;;;;;;;;;;;;;22.54;33.11;99970.56;5029322;27;98369;-77
2021/05/17 10:17:24;;;;;;;;;;;;;;;22.64;32.64;99976.72;5035694;27;97263;-78
2021/05/17 10:19:51;;;;;;;;;;;;;;;22.81;32.18;99974.28;5031703;27;97385;-76
2021/05/17 10:22:17;;;;;;;;;;;;;;;23.00;31.18;99972.28;5031053;28;99387;-75
2021/05/17 10:24:43;;;;;;;;;;;;;;;22.82;31.67;99967.88;5033155;27;98908;-75
2021/05/17 10:27:09;;;;;;;;;;;;;;;22.49;32.03;99967.47;5033702;27;96793;-76
2021/05/17 10:29:36;;;;;;;;;;;;;;;22.90;32.27;99968.00;5032798;27;97408;-77
2021/05/17 10:32:02;;;;;;;;;;;;;;;23.11;31.99;99962.28;5033104;28;98852;-76
2021/05/17 10:34:28;;;;;;;;;;;;;;;23.12;31.21;99974.75;5033205;27;97996;-77
2021/05/17 10:36:57;;;;;;;;;;;;;;;23.01;31.30;99971.31;5033334;28;96714;-76
2021/05/17 10:39:28;;;;;;;;;;;;;;;23.35;30.64;99976.88;5025836;28;96909;-75
2021/05/17 10:42:08;;;;;;;;;;;;;;;23.05;30.89;99969.13;5028339;28;99349;-76
2021/05/17 10:46:36;;;;;;;;;;;;;;;22.77;31.80;99981.81;5031041;27;98675;-78
2021/05/17 10:47:34;;;;;;;;;;;;;;;22.85;32.00;99968.41;5026801;27;97196;-78
2021/05/17 10:50:10;;;;;;;;;;;;;;;22.92;32.41;99971.34;5030303;28;97237;-77
2021/05/17 10:52:37;;;;;;;;;;;;;;;23.20;32.42;99961.38;5031639;28;98953;-78
2021/05/17 10:55:07;;;;;;;;;;;;;;;23.12;30.99;99963.97;5031559;27;99228;-77
2021/05/17 10:57:37;;;;;;;;;;;;;;;23.37;30.78;99958.66;5030773;27;97208;-76
2021/05/17 11:00:23;;;;;;;;;;;;;;;22.96;31.32;99954.75;5032907;27;96969;-78
2021/05/17 11:03:05;;;;;;;;;;;;;;;23.08;30.50;99949.97;5031292;28;98903;-78
2021/05/17 11:05:31;;;;;;;;;;;;;;;23.33;30.89;99946.50;5031869;28;99006;-78
2021/05/17 11:08:00;;;;;;;;;;;;;;;23.39;29.89;99947.72;5027881;28;96944;-76
2021/05/17 11:10:27;;;;;;;;;;;;;;;23.71;28.43;99945.31;5028262;28;97550;-77
2021/05/17 11:12:54;;;;;;;;;;;;;;;23.87;27.99;99947.31;5027943;27;99048;-77
2021/05/17 11:15:21;;;;;;;;;;;;;;;23.42;29.86;99942.91;5033401;27;97472;-77
2021/05/17 11:17:54;;;;;;;;;;;;;;;23.18;30.43;99936.41;5031253;27;97178;-79
2021/05/17 11:20:39;;;;;;;;;;;;;;;23.15;31.00;99932.19;5033021;28;97579;-78
2021/05/17 11:23:06;;;;;;;;;;;;;;;22.45;32.86;99939.13;5028957;27;98876;-77
2021/05/17 11:25:44;;;;;;;;;;;;;;;22.64;32.50;99933.66;5027507;28;99729;-78
2021/05/17 11:28:10;;;;;;;;;;;;;;;22.43;33.23;99930.38;5027703;28;96821;-77
2021/05/17 11:30:37;;;;;;;;;;;;;;;22.62;32.55;99922.19;5031943;27;97108;-77
2021/05/17 11:33:12;;;;;;;;;;;;;;;22.26;32.97;99934.69;5030450;27;99520;-78
2021/05/17 11:35:57;;;;;;;;;;;;;;;22.44;32.89;99937.47;5032521;28;99167;-77
2021/05/17 11:38:24;;;;;;;;;;;;;;;22.29;32.26;99938.94;5029734;27;98125;-77
2021/05/17 11:40:51;;;;;;;;;;;;;;;22.01;32.50;99938.06;5021305;27;97097;-75
2021/05/17 11:43:16;;;;;;;;;;;;;;;22.24;32.11;99938.56;5019047;27;101517;-77
2021/05/17 11:45:42;;;;;;;;;;;;;;;21.93;32.36;99943.28;5025838;27;98933;-77
2021/05/17 11:48:08;;;;;;;;;;;;;;;22.40;31.75;99937.91;5030536;28;96883;-77
2021/05/17 11:50:34;;;;;;;;;;;;;;;22.25;31.39;99938.38;5027754;28;97633;-76
2021/05/17 11:53:00;;;;;;;;;;;;;;;22.19;32.23;99930.91;5024532;27;99016;-76
2021/05/17 11:55:27;;;;;;;;;;;;;;;22.61;31.54;99938.50;5028623;27;99037;-77
2021/05/17 11:57:52;;;;;;;;;;;;;;;22.31;32.15;99944.19;5022849;27;96908;-76
2021/05/17 12:00:22;;;;;;;;;;;;;;;22.63;32.05;99944.59;5026396;28;97187;-77
2021/05/17 12:02:49;;;;;;;;;;;;;;;22.37;31.86;99941.75;5028503;28;98814;-77
2021/05/17 12:05:16;;;;;;;;;;;;;;;22.36;31.07;99934.66;5029256;28;101823;-76
2021/05/17 12:07:42;;;;;;;;;;;;;;;22.59;30.68;99929.72;5028269;28;97537;-79
2021/05/17 12:10:08;;;;;;;;;;;;;;;22.57;28.80;99932.56;5025453;27;98760;-78
2021/05/17 12:12:35;;;;;;;;;;;;;;;22.95;28.32;99931.50;5027568;27;99036;-76
2021/05/17 12:15:04;;;;;;;;;;;;;;;23.21;28.07;99931.59;5027884;27;98920;-77
2021/05/17 12:17:32;;;;;;;;;;;;;;;23.25;28.41;99932.09;5022314;27;97565;-78
2021/05/17 12:19:59;;;;;;;;;;;;;;;23.26;28.26;99933.81;5026107;27;97139;-79
2021/05/17 12:22:27;;;;;;;;;;;;;;;23.67;28.18;99927.78;5022044;27;98702;-77
2021/05/17 12:24:54;;;;;;;;;;;;;;;23.85;27.78;99930.41;5022142;27;101332;-78
2021/05/17 12:27:21;;;;;;;;;;;;;;;24.19;27.80;99934.03;5024458;27;97081;-78
2021/05/17 12:29:52;;;;;;;;;;;;;;;24.11;26.98;99933.09;5026024;27;100133;-78
2021/05/17 12:32:20;;;;;;;;;;;;;;;24.59;26.68;99948.72;5023989;27;101761;-76
2021/05/17 12:34:50;;;;;;;;;;;;;;;24.89;26.33;99936.47;5027102;27;98972;-77
2021/05/17 12:37:16;;;;;;;;;;;;;;;24.72;26.04;99927.50;5025155;27;97660;-77
2021/05/17 12:39:42;;;;;;;;;;;;;;;24.35;27.10;99932.44;5024102;27;97727;-76
2021/05/17 12:42:12;;;;;;;;;;;;;;;24.28;27.03;99929.53;5027226;27;99760;-77
2021/05/17 12:44:40;;;;;;;;;;;;;;;24.45;27.34;99933.13;5026067;27;98825;-78
2021/05/17 12:47:08;;;;;;;;;;;;;;;24.87;26.91;99939.34;5027005;27;97369;-77
2021/05/17 12:49:43;;;;;;;;;;;;;;;24.91;27.32;99932.63;5021028;27;97268;-76
2021/05/17 12:52:09;;;;;;;;;;;;;;;25.05;27.40;99938.41;5024652;27;97857;-75
2021/05/17 12:54:35;;;;;;;;;;;;;;;24.77;27.36;99935.09;5027035;27;99023;-75
2021/05/17 12:57:04;;;;;;;;;;;;;;;24.69;27.11;99944.00;5019914;27;97035;-75
2021/05/17 12:59:30;;;;;;;;;;;;;;;25.41;25.81;99937.06;5021563;27;97736;-75